createdAt,value
2019-01-04T00:00:41.759Z,102527.02
2019-01-04T00:03:11.179Z,102528.77
2019-01-04T00:05:40.648Z,102530.05
2019-01-04T00:08:10.461Z,102535.39
2019-01-04T00:10:40.151Z,102537.63
2019-01-04T00:13:09.768Z,102537.77
2019-01-04T00:15:39.183Z,102542.39
2019-01-04T00:18:09.026Z,102546.84
2019-01-04T00:20:38.800Z,102543.02
2019-01-04T00:23:08.798Z,102540.92
2019-01-04T00:25:38.244Z,102539.69
2019-01-04T00:28:14.603Z,102541.67
2019-01-04T00:30:44.299Z,102538.21
2019-01-04T00:33:13.914Z,102534.50
2019-01-04T00:35:43.615Z,102538.37
2019-01-04T00:38:13.284Z,102533.31
2019-01-04T00:40:42.989Z,102533.56
2019-01-04T00:43:12.854Z,102534.80
2019-01-04T00:45:42.469Z,102531.59
2019-01-04T00:48:12.215Z,102531.38
2019-01-04T00:50:42.087Z,102529.78
2019-01-04T00:53:11.861Z,102536.33
2019-01-04T00:56:14.583Z,102530.64
2019-01-04T00:59:01.576Z,102533.61
2019-01-04T01:01:40.448Z,102541.64
2019-01-04T01:04:19.159Z,102539.17
2019-01-04T01:07:08.567Z,102545.26
2019-01-04T01:10:11.293Z,102540.44
2019-01-04T01:13:02.979Z,102530.31
2019-01-04T01:16:00.760Z,102541.42
2019-01-04T01:18:49.385Z,102541.80
2019-01-04T01:21:27.473Z,102544.27
2019-01-04T01:24:31.745Z,102537.59
2019-01-04T01:27:29.814Z,102539.32
2019-01-04T01:30:33.626Z,102538.95
2019-01-04T01:33:23.723Z,102538.73
2019-01-04T01:35:58.942Z,102543.80
2019-01-04T01:38:31.470Z,102539.59
2019-01-04T01:41:27.669Z,102545.74
2019-01-04T01:44:16.638Z,102545.63
2019-01-04T01:46:57.599Z,102545.00
2019-01-04T01:49:38.645Z,102544.88
2019-01-04T01:52:14.903Z,102540.69
2019-01-04T01:54:44.364Z,102537.10
2019-01-04T01:57:14.376Z,102538.59
2019-01-04T01:59:44.223Z,102533.77
2019-01-04T02:02:13.707Z,102537.11
2019-01-04T02:04:43.270Z,102539.91
2019-01-04T02:07:13.088Z,102538.92
2019-01-04T02:09:42.263Z,102533.12
2019-01-04T02:12:11.938Z,102531.87
2019-01-04T02:14:41.713Z,102533.69
2019-01-04T02:17:11.216Z,102531.84
2019-01-04T02:19:40.821Z,102530.11
2019-01-04T02:22:10.652Z,102524.41
2019-01-04T02:24:39.878Z,102531.83
2019-01-04T02:27:09.636Z,102527.70
2019-01-04T02:29:39.044Z,102523.73
2019-01-04T02:32:08.353Z,102523.48
2019-01-04T02:34:37.659Z,102522.61
2019-01-04T02:37:07.356Z,102529.52
2019-01-04T02:39:37.180Z,102532.69
2019-01-04T02:42:06.979Z,102537.88
2019-01-04T02:44:36.649Z,102533.55
2019-01-04T02:47:06.301Z,102532.30
2019-01-04T02:49:35.987Z,102531.05
2019-01-04T02:52:05.817Z,102530.12
2019-01-04T02:54:35.421Z,102513.55
2019-01-04T02:57:05.061Z,102519.59
2019-01-04T02:59:34.783Z,102516.61
2019-01-04T03:02:05.631Z,102512.14
2019-01-04T03:04:35.252Z,102508.86
2019-01-04T03:07:04.753Z,102516.38
2019-01-04T03:09:34.301Z,102504.79
2019-01-04T03:12:03.674Z,102509.34
2019-01-04T03:14:33.107Z,102509.18
2019-01-04T03:17:02.350Z,102507.78
2019-01-04T03:19:32.018Z,102501.54
2019-01-04T03:22:01.887Z,102504.89
2019-01-04T03:24:31.223Z,102497.31
2019-01-04T03:27:00.815Z,102497.05
2019-01-04T03:29:30.255Z,102494.78
2019-01-04T03:31:59.932Z,102486.04
2019-01-04T03:34:29.464Z,102496.53
2019-01-04T03:36:59.150Z,102490.68
2019-01-04T03:39:28.458Z,102495.19
2019-01-04T03:41:57.690Z,102486.02
2019-01-04T03:44:27.439Z,102481.73
2019-01-04T03:46:57.062Z,102485.91
2019-01-04T03:49:26.786Z,102487.13
2019-01-04T03:51:56.161Z,102488.02
2019-01-04T03:54:25.821Z,102478.77
2019-01-04T03:56:55.389Z,102484.95
2019-01-04T03:59:25.204Z,102485.85
2019-01-04T04:01:55.017Z,102486.43
2019-01-04T04:04:24.499Z,102489.95
2019-01-04T04:06:54.367Z,102480.66
2019-01-04T04:09:23.956Z,102477.51
2019-01-04T04:11:53.887Z,102479.31
2019-01-04T04:14:23.604Z,102483.48
2019-01-04T04:16:53.387Z,102475.50
2019-01-04T04:19:23.069Z,102480.64
2019-01-04T04:21:52.742Z,102471.80
2019-01-04T04:24:22.415Z,102467.42
2019-01-04T04:26:52.016Z,102473.45
2019-01-04T04:29:21.913Z,102468.56
2019-01-04T04:31:51.454Z,102472.38
2019-01-04T04:34:21.164Z,102472.23
2019-01-04T04:36:50.794Z,102465.22
2019-01-04T04:39:20.445Z,102469.03
2019-01-04T04:41:49.755Z,102472.33
2019-01-04T04:44:19.592Z,102473.26
2019-01-04T04:46:48.983Z,102468.36
2019-01-04T04:49:18.915Z,102469.94
2019-01-04T04:52:03.109Z,102468.97
2019-01-04T04:54:32.369Z,102460.09
2019-01-04T04:57:02.184Z,102456.70
2019-01-04T04:59:31.775Z,102459.14
2019-01-04T05:02:01.046Z,102460.86
2019-01-04T05:04:31.057Z,102462.59
2019-01-04T05:07:00.766Z,102459.20
2019-01-04T05:09:30.514Z,102457.69
2019-01-04T05:11:59.941Z,102455.88
2019-01-04T05:14:29.508Z,102458.83
2019-01-04T05:16:58.945Z,102458.83
2019-01-04T05:19:28.342Z,102462.74
2019-01-04T05:21:57.455Z,102468.20
2019-01-04T05:24:26.446Z,102466.19
2019-01-04T05:26:56.208Z,102465.17
2019-01-04T05:29:25.977Z,102468.27
2019-01-04T05:31:55.020Z,102461.08
2019-01-04T05:34:25.240Z,102463.81
2019-01-04T05:36:54.301Z,102468.77
2019-01-04T05:39:24.266Z,102467.41
2019-01-04T05:41:54.312Z,102475.81
2019-01-04T05:44:23.580Z,102472.07
2019-01-04T05:46:53.158Z,102471.06
2019-01-04T05:49:23.934Z,102475.16
2019-01-04T05:51:53.590Z,102481.34
2019-01-04T05:54:23.222Z,102482.06
2019-01-04T05:56:53.145Z,102490.26
2019-01-04T05:59:22.749Z,102493.00
2019-01-04T06:01:52.049Z,102493.14
2019-01-04T06:04:21.537Z,102493.94
2019-01-04T06:06:51.369Z,102496.67
2019-01-04T06:09:21.148Z,102493.29
2019-01-04T06:11:50.919Z,102501.34
2019-01-04T06:14:20.578Z,102502.20
2019-01-04T06:16:49.915Z,102502.71
2019-01-04T06:19:19.722Z,102510.05
2019-01-04T06:21:49.476Z,102511.77
2019-01-04T06:24:19.055Z,102512.99
2019-01-04T06:26:48.958Z,102513.85
2019-01-04T06:29:18.748Z,102518.31
2019-01-04T06:31:48.473Z,102525.14
2019-01-04T06:34:18.346Z,102527.16
2019-01-04T06:36:48.168Z,102531.92
2019-01-04T06:39:17.382Z,102536.38
2019-01-04T06:41:47.216Z,102547.31
2019-01-04T06:44:16.824Z,102547.31
2019-01-04T06:47:12.099Z,102542.50
2019-01-04T06:49:41.775Z,102547.25
2019-01-04T06:52:11.344Z,102552.50
2019-01-04T06:55:18.546Z,102557.11
2019-01-04T06:57:47.940Z,102552.65
2019-01-04T07:00:17.739Z,102558.11
2019-01-04T07:02:47.239Z,102560.99
2019-01-04T07:05:16.990Z,102564.23
2019-01-04T07:07:46.892Z,102569.52
2019-01-04T07:10:16.594Z,102577.86
2019-01-04T07:12:46.431Z,102578.87
2019-01-04T07:15:16.233Z,102587.58
2019-01-04T07:17:47.240Z,102589.73
2019-01-04T07:20:16.694Z,102593.47
2019-01-04T07:22:46.190Z,102596.70
2019-01-04T07:25:16.012Z,102598.44
2019-01-04T07:27:45.689Z,102599.59
2019-01-04T07:30:15.131Z,102604.69
2019-01-04T07:32:44.858Z,102609.94
2019-01-04T07:35:14.650Z,102612.81
2019-01-04T07:37:44.339Z,102611.23
2019-01-04T07:40:14.234Z,102618.20
2019-01-04T07:42:44.065Z,102612.67
2019-01-04T07:45:13.780Z,102619.78
2019-01-04T07:47:43.682Z,102617.98
2019-01-04T07:50:13.660Z,102620.49
2019-01-04T07:52:43.302Z,102629.47
2019-01-04T07:55:13.223Z,102626.84
2019-01-04T07:57:57.179Z,102641.05
2019-01-04T08:00:27.223Z,102636.02
2019-01-04T08:02:57.048Z,102634.06
2019-01-04T08:05:26.756Z,102639.70
2019-01-04T08:07:56.623Z,102642.07
2019-01-04T08:10:26.754Z,102640.70
2019-01-04T08:13:00.915Z,102644.22
2019-01-04T08:15:30.637Z,102650.31
2019-01-04T08:18:00.473Z,102648.23
2019-01-04T08:20:30.417Z,102656.33
2019-01-04T08:23:00.198Z,102655.24
2019-01-04T08:25:30.015Z,102662.57
2019-01-04T08:28:00.008Z,102666.66
2019-01-04T08:30:29.793Z,102671.77
2019-01-04T08:32:59.472Z,102679.95
2019-01-04T08:35:29.391Z,102698.42
2019-01-04T08:37:59.153Z,102701.74
2019-01-04T08:40:28.729Z,102708.16
2019-01-04T08:42:58.598Z,102712.20
2019-01-04T08:45:28.133Z,102715.71
2019-01-04T08:47:57.915Z,102724.22
2019-01-04T08:50:27.539Z,102724.53
2019-01-04T08:52:57.161Z,102732.13
2019-01-04T08:55:27.055Z,102729.71
2019-01-04T08:57:56.130Z,102738.85
2019-01-04T09:00:25.916Z,102743.48
2019-01-04T09:02:55.696Z,102738.31
2019-01-04T09:05:25.437Z,102742.41
2019-01-04T09:07:55.242Z,102749.25
2019-01-04T09:10:25.016Z,102750.09
2019-01-04T09:12:55.031Z,102753.70
2019-01-04T09:15:24.908Z,102750.80
2019-01-04T09:17:54.563Z,102758.65
2019-01-04T09:20:24.388Z,102767.33
2019-01-04T09:22:54.081Z,102767.32
2019-01-04T09:25:23.718Z,102782.84
2019-01-04T09:27:53.588Z,102780.23
2019-01-04T09:30:23.186Z,102796.11
2019-01-04T09:32:52.863Z,102783.20
2019-01-04T09:35:22.549Z,102792.05
2019-01-04T09:37:52.067Z,102792.66
2019-01-04T09:40:21.809Z,102795.87
2019-01-04T09:42:51.529Z,102795.05
2019-01-04T09:45:21.925Z,102797.91
2019-01-04T09:47:51.792Z,102795.60
2019-01-04T09:50:21.486Z,102798.16
2019-01-04T09:52:51.170Z,102801.33
2019-01-04T09:55:20.518Z,102800.41
2019-01-04T09:57:50.239Z,102801.14
2019-01-04T10:00:20.044Z,102808.45
2019-01-04T10:02:49.676Z,102809.93
2019-01-04T10:05:19.447Z,102807.25
2019-01-04T10:07:48.974Z,102807.55
2019-01-04T10:10:18.467Z,102812.11
2019-01-04T10:12:47.861Z,102808.59
2019-01-04T10:15:17.853Z,102813.11
2019-01-04T10:17:47.175Z,102819.34
2019-01-04T10:20:16.626Z,102812.40
2019-01-04T10:22:46.220Z,102807.49
2019-01-04T10:25:15.929Z,102810.12
2019-01-04T10:27:45.629Z,102804.88
2019-01-04T10:30:20.728Z,102803.95
2019-01-04T10:32:50.452Z,102804.90
2019-01-04T10:35:20.226Z,102807.86
2019-01-04T10:37:49.916Z,102802.41
2019-01-04T10:40:19.542Z,102808.27
2019-01-04T10:42:49.255Z,102792.86
2019-01-04T10:45:19.066Z,102788.07
2019-01-04T10:47:48.918Z,102795.33
2019-01-04T10:50:18.480Z,102795.56
2019-01-04T10:52:48.258Z,102788.16
2019-01-04T10:55:18.094Z,102781.47
2019-01-04T10:57:47.588Z,102787.50
2019-01-04T11:00:17.327Z,102785.27
2019-01-04T11:02:47.031Z,102783.69
2019-01-04T11:05:16.731Z,102785.41
2019-01-04T11:07:46.447Z,102780.39
2019-01-04T11:10:22.523Z,102780.22
2019-01-04T11:12:52.341Z,102766.75
2019-01-04T11:15:22.479Z,102771.73
2019-01-04T11:17:52.119Z,102764.31
2019-01-04T11:20:41.359Z,102766.19
2019-01-04T11:23:30.537Z,102766.30
2019-01-04T11:26:11.790Z,102763.45
2019-01-04T11:28:50.498Z,102765.47
2019-01-04T11:31:47.372Z,102759.02
2019-01-04T11:34:27.016Z,102753.62
2019-01-04T11:37:20.506Z,102750.06
2019-01-04T11:39:58.755Z,102752.73
2019-01-04T11:43:01.455Z,102740.16
2019-01-04T11:45:33.909Z,102742.16
2019-01-04T11:48:21.512Z,102735.68
2019-01-04T11:51:12.645Z,102727.93
2019-01-04T11:53:42.510Z,102725.39
2019-01-04T11:56:12.570Z,102718.19
2019-01-04T11:58:42.334Z,102719.06
2019-01-04T12:01:12.176Z,102720.13
2019-01-04T12:03:41.890Z,102718.37
2019-01-04T12:06:11.563Z,102709.23
2019-01-04T12:08:41.316Z,102714.62
2019-01-04T12:11:10.760Z,102710.38
2019-01-04T12:13:40.432Z,102707.09
2019-01-04T12:16:10.735Z,102706.94
2019-01-04T12:18:40.396Z,102700.95
2019-01-04T12:21:10.183Z,102696.19
2019-01-04T12:23:39.300Z,102701.61
2019-01-04T12:26:08.662Z,102692.86
2019-01-04T12:28:48.586Z,102690.33
2019-01-04T12:31:18.329Z,102690.20
2019-01-04T12:33:48.533Z,102679.12
2019-01-04T12:36:18.264Z,102672.66
2019-01-04T12:38:47.759Z,102675.56
2019-01-04T12:41:17.481Z,102681.19
2019-01-04T12:43:47.894Z,102679.01
2019-01-04T12:46:17.905Z,102675.40
2019-01-04T12:48:47.824Z,102667.27
2019-01-04T12:51:17.587Z,102668.47
2019-01-04T12:53:47.466Z,102665.01
2019-01-04T12:56:17.096Z,102668.38
2019-01-04T12:58:47.508Z,102666.86
2019-01-04T13:01:17.323Z,102671.47
2019-01-04T13:03:47.001Z,102671.14
2019-01-04T13:06:16.771Z,102666.82
2019-01-04T13:08:46.206Z,102673.55
2019-01-04T13:11:15.829Z,102672.49
2019-01-04T13:13:45.445Z,102673.05
2019-01-04T13:16:15.309Z,102670.31
2019-01-04T13:18:45.465Z,102674.68
2019-01-04T13:21:15.057Z,102669.78
2019-01-04T13:23:44.804Z,102672.14
2019-01-04T13:26:14.522Z,102675.86
2019-01-04T13:28:55.269Z,102674.39
2019-01-04T13:31:25.115Z,102670.31
2019-01-04T13:33:54.784Z,102659.88
2019-01-04T13:36:24.540Z,102660.55
2019-01-04T13:38:54.303Z,102660.13
2019-01-04T13:41:24.038Z,102652.95
2019-01-04T13:43:53.735Z,102646.45
2019-01-04T13:46:23.538Z,102644.41
2019-01-04T13:48:53.392Z,102641.13
2019-01-04T13:51:23.089Z,102639.44
2019-01-04T13:53:53.002Z,102645.33
2019-01-04T13:56:22.735Z,102633.59
2019-01-04T13:58:52.408Z,102635.70
2019-01-04T14:01:22.221Z,102640.08
2019-01-04T14:03:52.075Z,102634.84
2019-01-04T14:06:21.869Z,102630.81
2019-01-04T14:08:51.706Z,102641.69
2019-01-04T14:11:21.419Z,102637.09
2019-01-04T14:13:51.121Z,102635.60
2019-01-04T14:16:20.873Z,102635.06
2019-01-04T14:18:50.380Z,102631.66
2019-01-04T14:21:20.236Z,102630.77
2019-01-04T14:23:50.112Z,102639.53
2019-01-04T14:26:19.871Z,102643.48
2019-01-04T14:28:49.516Z,102642.42
2019-01-04T14:31:20.297Z,102637.40
2019-01-04T14:33:49.994Z,102639.75
2019-01-04T14:36:19.873Z,102640.92
2019-01-04T14:38:49.724Z,102644.88
2019-01-04T14:41:23.297Z,102654.69
2019-01-04T14:43:50.648Z,102648.06
2019-01-04T14:46:20.516Z,102644.84
2019-01-04T14:48:50.230Z,102658.25
2019-01-04T14:51:19.994Z,102656.61
2019-01-04T14:53:49.879Z,102654.27
2019-01-04T14:56:19.581Z,102656.94
2019-01-04T14:58:49.420Z,102661.64
2019-01-04T15:01:19.320Z,102656.39
2019-01-04T15:03:48.955Z,102661.31
2019-01-04T15:06:18.673Z,102662.81
2019-01-04T15:08:48.413Z,102661.98
2019-01-04T15:11:18.068Z,102664.34
2019-01-04T15:13:47.704Z,102668.09
2019-01-04T15:16:17.554Z,102662.62
2019-01-04T15:18:47.217Z,102668.19
2019-01-04T15:21:16.844Z,102666.90
2019-01-04T15:23:48.871Z,102661.55
2019-01-04T15:26:18.756Z,102665.30
2019-01-04T15:28:48.397Z,102667.22
2019-01-04T15:31:18.305Z,102664.77
2019-01-04T15:33:48.034Z,102667.00
2019-01-04T15:36:17.657Z,102678.77
2019-01-04T15:38:47.523Z,102680.29
2019-01-04T15:41:17.314Z,102684.45
2019-01-04T15:43:46.936Z,102683.06
2019-01-04T15:46:16.855Z,102678.03
2019-01-04T15:48:46.511Z,102681.66
2019-01-04T15:51:16.263Z,102682.41
2019-01-04T15:53:46.150Z,102679.52
2019-01-04T15:56:16.017Z,102677.28
2019-01-04T15:58:45.840Z,102687.64
2019-01-04T16:01:15.722Z,102689.77
2019-01-04T16:03:45.233Z,102687.42
2019-01-04T16:06:14.914Z,102687.69
2019-01-04T16:08:44.813Z,102693.02
2019-01-04T16:11:14.599Z,102695.27
2019-01-04T16:13:44.212Z,102696.30
2019-01-04T16:16:13.984Z,102695.09
2019-01-04T16:18:43.530Z,102687.87
2019-01-04T16:21:13.268Z,102694.07
2019-01-04T16:23:43.144Z,102688.16
2019-01-04T16:26:13.040Z,102688.98
2019-01-04T16:28:42.865Z,102693.12
2019-01-04T16:31:12.730Z,102690.52
2019-01-04T16:33:42.395Z,102699.34
2019-01-04T16:36:12.084Z,102701.73
2019-01-04T16:38:41.957Z,102706.22
2019-01-04T16:41:11.656Z,102703.16
2019-01-04T16:43:41.072Z,102704.75
2019-01-04T16:46:10.699Z,102714.15
2019-01-04T16:48:40.679Z,102704.22
2019-01-04T16:51:10.276Z,102705.64
2019-01-04T16:53:40.095Z,102711.75
2019-01-04T16:56:09.825Z,102715.10
2019-01-04T16:58:39.602Z,102724.98
2019-01-04T17:01:09.431Z,102714.81
2019-01-04T17:03:38.789Z,102724.11
2019-01-04T17:06:08.620Z,102723.91
2019-01-04T17:08:38.456Z,102723.95
2019-01-04T17:11:08.069Z,102729.05
2019-01-04T17:13:37.910Z,102724.34
2019-01-04T17:16:07.625Z,102730.81
2019-01-04T17:18:37.257Z,102725.06
2019-01-04T17:21:07.071Z,102737.38
2019-01-04T17:23:36.742Z,102743.02
2019-01-04T17:26:06.506Z,102739.64
2019-01-04T17:28:36.853Z,102748.73
2019-01-04T17:31:06.567Z,102754.34
2019-01-04T17:33:36.403Z,102755.30
2019-01-04T17:36:06.175Z,102759.55
2019-01-04T17:38:35.801Z,102756.39
2019-01-04T17:41:05.462Z,102756.45
2019-01-04T17:43:35.184Z,102755.50
2019-01-04T17:46:05.139Z,102758.69
2019-01-04T17:48:34.805Z,102762.52
2019-01-04T17:51:04.342Z,102764.63
2019-01-04T17:53:34.031Z,102773.95
2019-01-04T17:56:03.192Z,102773.14
2019-01-04T17:58:32.553Z,102778.11
2019-01-04T18:01:02.223Z,102792.59
2019-01-04T18:03:31.712Z,102796.75
2019-01-04T18:06:01.012Z,102790.41
2019-01-04T18:08:30.424Z,102799.20
2019-01-04T18:10:59.602Z,102789.37
2019-01-04T18:13:28.943Z,102801.94
2019-01-04T18:15:58.392Z,102801.23
2019-01-04T18:18:27.660Z,102803.96
2019-01-04T18:20:57.082Z,102805.58
2019-01-04T18:23:26.559Z,102807.95
2019-01-04T18:25:56.073Z,102812.38
2019-01-04T18:28:25.503Z,102816.45
2019-01-04T18:30:55.164Z,102810.05
2019-01-04T18:33:24.533Z,102814.11
2019-01-04T18:35:53.772Z,102821.11
2019-01-04T18:38:23.253Z,102824.69
2019-01-04T18:40:52.582Z,102828.23
2019-01-04T18:43:21.692Z,102831.58
2019-01-04T18:45:51.376Z,102835.78
2019-01-04T18:48:20.524Z,102844.01
2019-01-04T18:50:51.053Z,102849.05
2019-01-04T18:53:20.622Z,102847.03
2019-01-04T18:55:49.712Z,102854.64
2019-01-04T18:58:19.462Z,102855.41
2019-01-04T19:00:48.843Z,102857.38
2019-01-04T19:03:17.984Z,102862.29
2019-01-04T19:05:47.023Z,102864.06
2019-01-04T19:08:16.456Z,102867.44
2019-01-04T19:10:45.703Z,102867.89
2019-01-04T19:13:15.022Z,102866.20
2019-01-04T19:15:44.414Z,102873.47
2019-01-04T19:18:13.643Z,102870.61
2019-01-04T19:20:42.854Z,102874.98
2019-01-04T19:23:12.042Z,102884.59
2019-01-04T19:25:41.472Z,102886.98
2019-01-04T19:28:10.732Z,102887.20
2019-01-04T19:30:40.322Z,102896.37
2019-01-04T19:33:09.912Z,102899.72
2019-01-04T19:35:39.452Z,102893.66
2019-01-04T19:38:08.896Z,102895.47
2019-01-04T19:40:38.391Z,102899.14
2019-01-04T19:43:07.734Z,102899.24
2019-01-04T19:45:37.503Z,102904.56
2019-01-04T19:48:06.837Z,102905.28
2019-01-04T19:50:36.313Z,102910.34
2019-01-04T19:53:05.787Z,102910.91
2019-01-04T19:55:34.903Z,102910.25
2019-01-04T19:58:04.117Z,102913.22
2019-01-04T20:00:33.145Z,102920.11
2019-01-04T20:03:02.076Z,102928.52
2019-01-04T20:06:13.721Z,102925.64
2019-01-04T20:09:02.548Z,102933.66
2019-01-04T20:12:18.105Z,102928.05
2019-01-04T20:15:00.944Z,102934.07
2019-01-04T20:17:32.346Z,102939.22
2019-01-04T20:20:05.892Z,102947.91
2019-01-04T20:22:43.076Z,102941.87
2019-01-04T20:25:30.003Z,102953.22
2019-01-04T20:28:03.583Z,102960.08
2019-01-04T20:30:37.184Z,102956.02
2019-01-04T20:33:23.946Z,102951.75
2019-01-04T20:36:12.293Z,102959.11
2019-01-04T20:38:52.448Z,102962.74
2019-01-04T20:41:39.434Z,102970.83
2019-01-04T20:44:10.444Z,102971.75
2019-01-04T20:46:50.295Z,102980.47
2019-01-04T20:49:30.784Z,102979.61
2019-01-04T20:52:17.534Z,102970.00
2019-01-04T20:55:04.594Z,102975.27
2019-01-04T20:57:44.224Z,102976.83
2019-01-04T21:00:14.905Z,102980.95
2019-01-04T21:03:02.323Z,102983.34
2019-01-04T21:05:36.595Z,102988.56
2019-01-04T21:08:10.355Z,102983.73
2019-01-04T21:10:41.254Z,102984.09
2019-01-04T21:13:28.284Z,102982.86
2019-01-04T21:16:08.504Z,102988.70
2019-01-04T21:18:48.237Z,102986.63
2019-01-04T21:21:21.903Z,102978.46
2019-01-04T21:24:02.058Z,102991.60
2019-01-04T21:26:33.213Z,102981.94
2019-01-04T21:29:14.275Z,102979.37
2019-01-04T21:31:50.914Z,102970.45
2019-01-04T21:34:24.384Z,102967.77
2019-01-04T21:36:59.103Z,102970.83
2019-01-04T21:39:46.303Z,102966.61
2019-01-04T21:42:17.375Z,102970.33
2019-01-04T21:45:04.004Z,102965.74
2019-01-04T21:47:51.624Z,102963.39
2019-01-04T21:50:34.865Z,102963.67
2019-01-04T21:53:11.037Z,102969.49
2019-01-04T21:55:51.824Z,102968.75
2019-01-04T21:58:32.510Z,102971.38
2019-01-04T22:01:03.748Z,102979.91
2019-01-04T22:03:51.432Z,102979.89
2019-01-04T22:06:28.972Z,102974.69
2019-01-04T22:09:00.171Z,102972.71
2019-01-04T22:11:48.267Z,102974.94
2019-01-04T22:14:19.144Z,102972.59
2019-01-04T22:17:08.516Z,102969.00
2019-01-04T22:19:56.531Z,102972.09
2019-01-04T22:22:39.658Z,102970.11
2019-01-04T22:25:26.843Z,102967.61
2019-01-04T22:28:04.423Z,102965.03
2019-01-04T22:30:52.417Z,102965.52
2019-01-04T22:33:30.765Z,102974.16
2019-01-04T22:36:01.794Z,102964.38
2019-01-04T22:38:42.205Z,102969.59
2019-01-04T22:41:26.186Z,102973.42
2019-01-04T22:43:57.555Z,102973.28
2019-01-04T22:46:45.751Z,102970.42
2019-01-04T22:49:34.254Z,102973.65
2019-01-04T22:52:14.553Z,102978.09
2019-01-04T22:55:02.672Z,102973.60
2019-01-04T22:57:50.682Z,102976.55
2019-01-04T23:00:46.010Z,102982.75
2019-01-04T23:03:34.351Z,102983.09
2019-01-04T23:06:21.002Z,102974.34
2019-01-04T23:08:58.181Z,102980.62
2019-01-04T23:11:29.430Z,102982.33
2019-01-04T23:14:17.643Z,102979.20
2019-01-04T23:16:48.785Z,102982.41
2019-01-04T23:19:37.020Z,102985.13
2019-01-04T23:22:27.795Z,102988.72
2019-01-04T23:25:05.273Z,102986.83
2019-01-04T23:27:54.179Z,102983.81
2019-01-04T23:30:25.548Z,102991.29
2019-01-04T23:32:56.722Z,102988.30
2019-01-04T23:35:27.942Z,102990.75
2019-01-04T23:38:16.279Z,102989.28
2019-01-04T23:40:56.451Z,102987.27
2019-01-04T23:43:33.833Z,102982.02
2019-01-04T23:46:20.484Z,102979.14
2019-01-04T23:48:51.797Z,102984.45
2019-01-04T23:51:30.009Z,102986.64
2019-01-04T23:54:07.993Z,102985.13
2019-01-04T23:56:56.558Z,102991.05
2019-01-04T23:59:34.421Z,102982.52
